sensor_id;sensor_type;location;lat;lon;timestamp;temperature;humidity
15900;DHT22;8048;50.644;6.184;2022-09-09T00:01:24;13.80;99.90
15900;DHT22;8048;50.644;6.184;2022-09-09T00:03:59;13.70;99.90
15900;DHT22;8048;50.644;6.184;2022-09-09T00:06:32;13.70;99.90
15900;DHT22;8048;50.644;6.184;2022-09-09T00:14:23;13.70;99.90
15900;DHT22;8048;50.644;6.184;2022-09-09T00:16:56;13.70;99.90
15900;DHT22;8048;50.644;6.184;2022-09-09T00:19:55;13.70;99.90
15900;DHT22;8048;50.644;6.184;2022-09-09T00:22:23;13.70;99.90
15900;DHT22;8048;50.644;6.184;2022-09-09T00:24:53;13.70;99.90
15900;DHT22;8048;50.644;6.184;2022-09-09T00:27:25;13.70;99.90
15900;DHT22;8048;50.644;6.184;2022-09-09T00:29:59;13.70;99.90
15900;DHT22;8048;50.644;6.184;2022-09-09T00:32:29;13.70;99.90
15900;DHT22;8048;50.644;6.184;2022-09-09T00:35:00;13.70;99.90
15900;DHT22;8048;50.644;6.184;2022-09-09T00:37:28;13.70;99.90
15900;DHT22;8048;50.644;6.184;2022-09-09T00:39:59;13.70;99.90
15900;DHT22;8048;50.644;6.184;2022-09-09T00:42:42;13.70;99.90
15900;DHT22;8048;50.644;6.184;2022-09-09T00:47:51;13.80;99.90
15900;DHT22;8048;50.644;6.184;2022-09-09T00:50:46;13.90;99.90
15900;DHT22;8048;50.644;6.184;2022-09-09T00:53:38;13.90;99.90
15900;DHT22;8048;50.644;6.184;2022-09-09T00:56:20;13.90;99.90
15900;DHT22;8048;50.644;6.184;2022-09-09T00:59:07;14.00;99.90
15900;DHT22;8048;50.644;6.184;2022-09-09T01:01:37;14.00;99.90
15900;DHT22;8048;50.644;6.184;2022-09-09T01:04:18;14.00;99.90
15900;DHT22;8048;50.644;6.184;2022-09-09T01:06:49;14.00;99.90
15900;DHT22;8048;50.644;6.184;2022-09-09T01:09:28;13.90;99.90
15900;DHT22;8048;50.644;6.184;2022-09-09T01:22:25;13.90;99.90
15900;DHT22;8048;50.644;6.184;2022-09-09T01:27:35;14.10;99.90
15900;DHT22;8048;50.644;6.184;2022-09-09T01:30:08;14.10;99.90
15900;DHT22;8048;50.644;6.184;2022-09-09T01:32:46;14.10;99.90
15900;DHT22;8048;50.644;6.184;2022-09-09T01:38:05;14.20;99.90
15900;DHT22;8048;50.644;6.184;2022-09-09T01:40:31;14.30;99.90
15900;DHT22;8048;50.644;6.184;2022-09-09T01:42:57;14.20;99.90
15900;DHT22;8048;50.644;6.184;2022-09-09T01:45:23;14.30;99.90
15900;DHT22;8048;50.644;6.184;2022-09-09T01:47:52;14.30;99.90
15900;DHT22;8048;50.644;6.184;2022-09-09T01:50:18;14.30;99.90
15900;DHT22;8048;50.644;6.184;2022-09-09T01:52:46;14.30;99.90
15900;DHT22;8048;50.644;6.184;2022-09-09T01:55:13;14.30;99.90
15900;DHT22;8048;50.644;6.184;2022-09-09T01:57:50;14.40;99.90
15900;DHT22;8048;50.644;6.184;2022-09-09T02:00:19;14.40;99.90
15900;DHT22;8048;50.644;6.184;2022-09-09T02:03:00;14.50;99.90
15900;DHT22;8048;50.644;6.184;2022-09-09T02:08:15;14.50;99.90
15900;DHT22;8048;50.644;6.184;2022-09-09T02:13:23;14.50;99.90
15900;DHT22;8048;50.644;6.184;2022-09-09T02:16:00;14.50;99.90
15900;DHT22;8048;50.644;6.184;2022-09-09T02:18:32;14.40;99.90
15900;DHT22;8048;50.644;6.184;2022-09-09T02:21:01;14.50;99.90
15900;DHT22;8048;50.644;6.184;2022-09-09T02:23:28;14.50;99.90
15900;DHT22;8048;50.644;6.184;2022-09-09T02:25:56;14.60;99.90
15900;DHT22;8048;50.644;6.184;2022-09-09T02:28:25;14.60;99.90
15900;DHT22;8048;50.644;6.184;2022-09-09T02:30:51;14.60;99.90
15900;DHT22;8048;50.644;6.184;2022-09-09T02:33:24;14.60;99.90
15900;DHT22;8048;50.644;6.184;2022-09-09T02:35:51;14.50;99.90
15900;DHT22;8048;50.644;6.184;2022-09-09T02:38:18;14.50;99.90
15900;DHT22;8048;50.644;6.184;2022-09-09T02:40:46;14.50;99.90
15900;DHT22;8048;50.644;6.184;2022-09-09T02:43:14;14.50;99.90
15900;DHT22;8048;50.644;6.184;2022-09-09T02:45:52;14.50;99.90
15900;DHT22;8048;50.644;6.184;2022-09-09T02:48:31;14.40;99.90
15900;DHT22;8048;50.644;6.184;2022-09-09T02:51:06;14.40;99.90
15900;DHT22;8048;50.644;6.184;2022-09-09T02:56:15;14.40;99.90
15900;DHT22;8048;50.644;6.184;2022-09-09T02:58:42;14.40;99.90
15900;DHT22;8048;50.644;6.184;2022-09-09T03:01:07;14.50;99.90
15900;DHT22;8048;50.644;6.184;2022-09-09T03:03:34;14.50;99.90
15900;DHT22;8048;50.644;6.184;2022-09-09T03:06:00;14.50;99.90
15900;DHT22;8048;50.644;6.184;2022-09-09T03:08:25;14.50;99.90
15900;DHT22;8048;50.644;6.184;2022-09-09T03:10:54;14.40;99.90
15900;DHT22;8048;50.644;6.184;2022-09-09T03:13:20;14.50;99.90
15900;DHT22;8048;50.644;6.184;2022-09-09T03:15:47;14.50;99.90
15900;DHT22;8048;50.644;6.184;2022-09-09T03:18:14;14.40;99.90
15900;DHT22;8048;50.644;6.184;2022-09-09T03:20:39;14.40;99.90
15900;DHT22;8048;50.644;6.184;2022-09-09T03:23:07;14.40;99.90
15900;DHT22;8048;50.644;6.184;2022-09-09T03:25:32;14.30;99.90
15900;DHT22;8048;50.644;6.184;2022-09-09T03:27:58;14.30;99.90
15900;DHT22;8048;50.644;6.184;2022-09-09T03:30:26;14.30;99.90
15900;DHT22;8048;50.644;6.184;2022-09-09T03:32:52;14.30;99.90
15900;DHT22;8048;50.644;6.184;2022-09-09T03:35:18;14.30;99.90
15900;DHT22;8048;50.644;6.184;2022-09-09T03:37:43;14.30;99.90
15900;DHT22;8048;50.644;6.184;2022-09-09T03:40:09;14.30;99.90
15900;DHT22;8048;50.644;6.184;2022-09-09T03:42:36;14.40;99.90
15900;DHT22;8048;50.644;6.184;2022-09-09T03:45:03;14.40;99.90
15900;DHT22;8048;50.644;6.184;2022-09-09T03:47:29;14.40;99.90
15900;DHT22;8048;50.644;6.184;2022-09-09T03:49:55;14.40;99.90
15900;DHT22;8048;50.644;6.184;2022-09-09T03:52:20;14.30;99.90
15900;DHT22;8048;50.644;6.184;2022-09-09T03:54:50;14.40;99.90
15900;DHT22;8048;50.644;6.184;2022-09-09T03:57:16;14.30;99.90
15900;DHT22;8048;50.644;6.184;2022-09-09T03:59:43;14.20;99.90
15900;DHT22;8048;50.644;6.184;2022-09-09T04:02:08;14.20;99.90
15900;DHT22;8048;50.644;6.184;2022-09-09T04:04:34;14.20;99.90
15900;DHT22;8048;50.644;6.184;2022-09-09T04:06:59;14.30;99.90
15900;DHT22;8048;50.644;6.184;2022-09-09T04:09:25;14.20;99.90
15900;DHT22;8048;50.644;6.184;2022-09-09T04:11:50;14.30;99.90
15900;DHT22;8048;50.644;6.184;2022-09-09T04:14:17;14.30;99.90
15900;DHT22;8048;50.644;6.184;2022-09-09T04:16:42;14.40;99.90
15900;DHT22;8048;50.644;6.184;2022-09-09T04:19:10;14.20;99.90
15900;DHT22;8048;50.644;6.184;2022-09-09T04:21:38;14.20;99.90
15900;DHT22;8048;50.644;6.184;2022-09-09T04:24:05;14.20;99.90
15900;DHT22;8048;50.644;6.184;2022-09-09T04:26:31;14.30;99.90
15900;DHT22;8048;50.644;6.184;2022-09-09T04:28:57;14.30;99.90
15900;DHT22;8048;50.644;6.184;2022-09-09T04:31:23;14.30;99.90
15900;DHT22;8048;50.644;6.184;2022-09-09T04:33:52;14.30;99.90
15900;DHT22;8048;50.644;6.184;2022-09-09T04:36:18;14.30;99.90
15900;DHT22;8048;50.644;6.184;2022-09-09T04:38:45;14.30;99.90
15900;DHT22;8048;50.644;6.184;2022-09-09T04:41:12;14.20;99.90
15900;DHT22;8048;50.644;6.184;2022-09-09T04:43:38;14.20;99.90
15900;DHT22;8048;50.644;6.184;2022-09-09T04:46:05;14.20;99.90
15900;DHT22;8048;50.644;6.184;2022-09-09T04:48:30;14.20;99.90
15900;DHT22;8048;50.644;6.184;2022-09-09T04:51:09;14.20;99.90
15900;DHT22;8048;50.644;6.184;2022-09-09T04:53:36;14.20;99.90
15900;DHT22;8048;50.644;6.184;2022-09-09T04:56:13;14.10;99.90
15900;DHT22;8048;50.644;6.184;2022-09-09T04:58:39;14.20;99.90
15900;DHT22;8048;50.644;6.184;2022-09-09T05:03:34;14.20;99.90
15900;DHT22;8048;50.644;6.184;2022-09-09T05:06:07;14.10;99.90
15900;DHT22;8048;50.644;6.184;2022-09-09T05:08:38;14.10;99.90
15900;DHT22;8048;50.644;6.184;2022-09-09T05:11:22;14.10;99.90
15900;DHT22;8048;50.644;6.184;2022-09-09T05:13:50;14.00;99.90
15900;DHT22;8048;50.644;6.184;2022-09-09T05:16:16;14.10;99.90
15900;DHT22;8048;50.644;6.184;2022-09-09T05:18:43;14.00;99.90
15900;DHT22;8048;50.644;6.184;2022-09-09T05:21:10;14.00;99.90
15900;DHT22;8048;50.644;6.184;2022-09-09T05:23:36;14.00;99.90
15900;DHT22;8048;50.644;6.184;2022-09-09T05:26:03;14.00;99.90
15900;DHT22;8048;50.644;6.184;2022-09-09T05:28:29;13.90;99.90
15900;DHT22;8048;50.644;6.184;2022-09-09T05:31:00;13.90;99.90
15900;DHT22;8048;50.644;6.184;2022-09-09T05:33:27;13.90;99.90
15900;DHT22;8048;50.644;6.184;2022-09-09T05:35:57;13.90;99.90
15900;DHT22;8048;50.644;6.184;2022-09-09T05:38:23;13.80;99.90
15900;DHT22;8048;50.644;6.184;2022-09-09T05:40:51;13.80;99.90
15900;DHT22;8048;50.644;6.184;2022-09-09T05:43:18;13.80;99.90
15900;DHT22;8048;50.644;6.184;2022-09-09T05:45:43;13.80;99.90
15900;DHT22;8048;50.644;6.184;2022-09-09T05:48:09;13.80;99.90
15900;DHT22;8048;50.644;6.184;2022-09-09T05:50:34;13.80;99.90
15900;DHT22;8048;50.644;6.184;2022-09-09T05:53:00;13.90;99.90
15900;DHT22;8048;50.644;6.184;2022-09-09T05:55:25;14.00;99.90
15900;DHT22;8048;50.644;6.184;2022-09-09T05:57:51;14.10;99.90
15900;DHT22;8048;50.644;6.184;2022-09-09T06:00:17;14.20;99.90
15900;DHT22;8048;50.644;6.184;2022-09-09T06:02:43;14.20;99.90
15900;DHT22;8048;50.644;6.184;2022-09-09T06:05:09;14.30;99.90
15900;DHT22;8048;50.644;6.184;2022-09-09T06:07:36;14.30;99.90
15900;DHT22;8048;50.644;6.184;2022-09-09T06:10:01;14.20;99.90
15900;DHT22;8048;50.644;6.184;2022-09-09T06:12:27;14.20;99.90
15900;DHT22;8048;50.644;6.184;2022-09-09T06:14:52;14.20;99.90
15900;DHT22;8048;50.644;6.184;2022-09-09T06:17:18;14.20;99.90
15900;DHT22;8048;50.644;6.184;2022-09-09T06:19:43;14.10;99.90
15900;DHT22;8048;50.644;6.184;2022-09-09T06:22:09;14.10;99.90
15900;DHT22;8048;50.644;6.184;2022-09-09T06:24:37;14.10;99.90
15900;DHT22;8048;50.644;6.184;2022-09-09T06:27:03;14.10;99.90
15900;DHT22;8048;50.644;6.184;2022-09-09T06:29:28;14.20;99.90
15900;DHT22;8048;50.644;6.184;2022-09-09T06:31:54;14.20;99.90
15900;DHT22;8048;50.644;6.184;2022-09-09T06:34:20;14.10;99.90
15900;DHT22;8048;50.644;6.184;2022-09-09T06:36:46;14.20;99.90
15900;DHT22;8048;50.644;6.184;2022-09-09T06:39:11;14.30;99.90
15900;DHT22;8048;50.644;6.184;2022-09-09T06:41:37;14.40;99.90
15900;DHT22;8048;50.644;6.184;2022-09-09T06:44:03;14.40;99.90
15900;DHT22;8048;50.644;6.184;2022-09-09T06:46:30;14.50;99.90
15900;DHT22;8048;50.644;6.184;2022-09-09T06:48:57;14.50;99.90
15900;DHT22;8048;50.644;6.184;2022-09-09T06:51:33;14.60;99.90
15900;DHT22;8048;50.644;6.184;2022-09-09T06:54:01;14.80;99.90
15900;DHT22;8048;50.644;6.184;2022-09-09T06:56:32;14.80;99.90
15900;DHT22;8048;50.644;6.184;2022-09-09T06:59:00;15.00;99.90
15900;DHT22;8048;50.644;6.184;2022-09-09T07:01:31;15.10;99.90
15900;DHT22;8048;50.644;6.184;2022-09-09T07:03:57;15.20;99.90
15900;DHT22;8048;50.644;6.184;2022-09-09T07:06:27;15.30;99.90
15900;DHT22;8048;50.644;6.184;2022-09-09T07:08:55;15.30;99.90
15900;DHT22;8048;50.644;6.184;2022-09-09T07:11:22;15.40;99.90
15900;DHT22;8048;50.644;6.184;2022-09-09T07:13:49;15.30;99.90
15900;DHT22;8048;50.644;6.184;2022-09-09T07:16:19;15.40;99.90
15900;DHT22;8048;50.644;6.184;2022-09-09T07:18:46;15.40;99.90
15900;DHT22;8048;50.644;6.184;2022-09-09T07:21:13;15.40;99.90
15900;DHT22;8048;50.644;6.184;2022-09-09T07:23:40;15.50;99.90
15900;DHT22;8048;50.644;6.184;2022-09-09T07:26:11;15.50;99.90
15900;DHT22;8048;50.644;6.184;2022-09-09T07:28:38;15.50;99.90
15900;DHT22;8048;50.644;6.184;2022-09-09T07:31:05;15.50;99.50
15900;DHT22;8048;50.644;6.184;2022-09-09T07:33:32;15.60;99.60
15900;DHT22;8048;50.644;6.184;2022-09-09T07:36:09;15.70;98.80
15900;DHT22;8048;50.644;6.184;2022-09-09T07:38:43;15.80;98.50
15900;DHT22;8048;50.644;6.184;2022-09-09T07:41:15;15.90;98.90
15900;DHT22;8048;50.644;6.184;2022-09-09T07:43:42;15.90;98.50
15900;DHT22;8048;50.644;6.184;2022-09-09T07:46:11;15.80;97.70
15900;DHT22;8048;50.644;6.184;2022-09-09T07:48:38;15.80;97.90
15900;DHT22;8048;50.644;6.184;2022-09-09T07:53:31;15.80;98.20
15900;DHT22;8048;50.644;6.184;2022-09-09T07:56:07;15.90;98.00
15900;DHT22;8048;50.644;6.184;2022-09-09T07:58:33;15.90;98.20
15900;DHT22;8048;50.644;6.184;2022-09-09T08:00:58;16.20;98.20
15900;DHT22;8048;50.644;6.184;2022-09-09T08:03:24;16.30;97.20
15900;DHT22;8048;50.644;6.184;2022-09-09T08:05:50;16.40;97.20
15900;DHT22;8048;50.644;6.184;2022-09-09T08:08:15;16.40;97.00
15900;DHT22;8048;50.644;6.184;2022-09-09T08:10:42;16.50;97.20
15900;DHT22;8048;50.644;6.184;2022-09-09T08:13:09;16.70;97.50
15900;DHT22;8048;50.644;6.184;2022-09-09T08:15:34;16.80;96.90
15900;DHT22;8048;50.644;6.184;2022-09-09T08:18:00;16.90;96.80
15900;DHT22;8048;50.644;6.184;2022-09-09T08:20:25;17.00;96.60
15900;DHT22;8048;50.644;6.184;2022-09-09T08:22:51;17.00;96.20
15900;DHT22;8048;50.644;6.184;2022-09-09T08:25:16;16.90;96.40
15900;DHT22;8048;50.644;6.184;2022-09-09T08:27:42;16.90;95.90
15900;DHT22;8048;50.644;6.184;2022-09-09T08:30:08;16.80;95.90
15900;DHT22;8048;50.644;6.184;2022-09-09T08:32:34;16.70;96.20
15900;DHT22;8048;50.644;6.184;2022-09-09T08:35:00;16.60;96.70
15900;DHT22;8048;50.644;6.184;2022-09-09T08:37:26;16.60;96.70
15900;DHT22;8048;50.644;6.184;2022-09-09T08:39:51;16.70;96.90
15900;DHT22;8048;50.644;6.184;2022-09-09T08:42:39;16.60;96.80
15900;DHT22;8048;50.644;6.184;2022-09-09T08:45:23;16.70;96.90
15900;DHT22;8048;50.644;6.184;2022-09-09T08:48:25;16.60;97.20
15900;DHT22;8048;50.644;6.184;2022-09-09T08:50:55;16.50;97.10
15900;DHT22;8048;50.644;6.184;2022-09-09T08:53:29;16.50;97.10
15900;DHT22;8048;50.644;6.184;2022-09-09T08:56:16;16.60;97.50
15900;DHT22;8048;50.644;6.184;2022-09-09T08:58:48;16.60;97.70
15900;DHT22;8048;50.644;6.184;2022-09-09T09:04:37;16.80;97.20
15900;DHT22;8048;50.644;6.184;2022-09-09T09:07:13;16.90;96.80
15900;DHT22;8048;50.644;6.184;2022-09-09T09:09:50;17.10;97.20
15900;DHT22;8048;50.644;6.184;2022-09-09T09:12:20;17.40;97.40
15900;DHT22;8048;50.644;6.184;2022-09-09T09:14:48;17.50;96.50
15900;DHT22;8048;50.644;6.184;2022-09-09T09:17:18;17.70;95.70
15900;DHT22;8048;50.644;6.184;2022-09-09T09:19:45;17.80;96.10
15900;DHT22;8048;50.644;6.184;2022-09-09T09:22:23;17.90;95.60
15900;DHT22;8048;50.644;6.184;2022-09-09T09:24:55;17.70;95.60
15900;DHT22;8048;50.644;6.184;2022-09-09T09:27:35;17.50;96.00
15900;DHT22;8048;50.644;6.184;2022-09-09T09:30:22;17.50;96.60
15900;DHT22;8048;50.644;6.184;2022-09-09T09:32:55;17.50;97.10
15900;DHT22;8048;50.644;6.184;2022-09-09T09:35:21;17.20;96.70
15900;DHT22;8048;50.644;6.184;2022-09-09T09:37:48;17.10;97.70
15900;DHT22;8048;50.644;6.184;2022-09-09T09:40:21;17.40;97.40
15900;DHT22;8048;50.644;6.184;2022-09-09T09:42:59;17.90;96.90
15900;DHT22;8048;50.644;6.184;2022-09-09T09:45:40;18.30;95.10
15900;DHT22;8048;50.644;6.184;2022-09-09T09:48:10;18.70;95.30
15900;DHT22;8048;50.644;6.184;2022-09-09T09:50:48;19.00;93.80
15900;DHT22;8048;50.644;6.184;2022-09-09T09:53:27;19.40;92.50
15900;DHT22;8048;50.644;6.184;2022-09-09T09:56:13;19.60;91.90
15900;DHT22;8048;50.644;6.184;2022-09-09T10:01:28;19.60;90.30
15900;DHT22;8048;50.644;6.184;2022-09-09T10:06:42;19.50;90.00
15900;DHT22;8048;50.644;6.184;2022-09-09T10:09:27;19.60;90.80
15900;DHT22;8048;50.644;6.184;2022-09-09T10:17:53;19.30;91.40
15900;DHT22;8048;50.644;6.184;2022-09-09T10:23:13;18.30;91.00
15900;DHT22;8048;50.644;6.184;2022-09-09T10:26:05;18.10;91.70
15900;DHT22;8048;50.644;6.184;2022-09-09T10:28:54;18.10;92.60
15900;DHT22;8048;50.644;6.184;2022-09-09T10:42:46;20.80;89.00
15900;DHT22;8048;50.644;6.184;2022-09-09T10:45:22;20.70;86.70
15900;DHT22;8048;50.644;6.184;2022-09-09T10:48:30;20.60;87.00
15900;DHT22;8048;50.644;6.184;2022-09-09T10:51:14;20.50;88.30
15900;DHT22;8048;50.644;6.184;2022-09-09T10:56:14;20.30;88.10
15900;DHT22;8048;50.644;6.184;2022-09-09T11:01:31;19.60;88.90
15900;DHT22;8048;50.644;6.184;2022-09-09T11:04:25;19.50;90.30
15900;DHT22;8048;50.644;6.184;2022-09-09T11:06:53;19.40;90.90
15900;DHT22;8048;50.644;6.184;2022-09-09T11:09:24;19.40;90.40
15900;DHT22;8048;50.644;6.184;2022-09-09T11:11:56;19.90;92.20
15900;DHT22;8048;50.644;6.184;2022-09-09T11:14:36;20.60;90.00
15900;DHT22;8048;50.644;6.184;2022-09-09T11:17:28;20.80;88.10
15900;DHT22;8048;50.644;6.184;2022-09-09T11:19:56;20.70;87.30
15900;DHT22;8048;50.644;6.184;2022-09-09T11:22:25;20.40;89.10
15900;DHT22;8048;50.644;6.184;2022-09-09T11:33:40;20.50;91.70
15900;DHT22;8048;50.644;6.184;2022-09-09T11:36:31;20.10;92.60
15900;DHT22;8048;50.644;6.184;2022-09-09T11:41:48;19.30;93.80
15900;DHT22;8048;50.644;6.184;2022-09-09T11:44:21;19.00;94.70
15900;DHT22;8048;50.644;6.184;2022-09-09T11:46:51;18.80;95.60
15900;DHT22;8048;50.644;6.184;2022-09-09T11:49:41;18.60;96.50
15900;DHT22;8048;50.644;6.184;2022-09-09T11:54:48;18.50;97.10
15900;DHT22;8048;50.644;6.184;2022-09-09T11:57:27;18.60;97.60
15900;DHT22;8048;50.644;6.184;2022-09-09T11:59:56;18.70;97.60
15900;DHT22;8048;50.644;6.184;2022-09-09T12:02:26;18.70;96.90
15900;DHT22;8048;50.644;6.184;2022-09-09T12:05:08;18.90;97.40
15900;DHT22;8048;50.644;6.184;2022-09-09T12:07:41;19.10;97.00
15900;DHT22;8048;50.644;6.184;2022-09-09T12:12:35;19.40;95.40
15900;DHT22;8048;50.644;6.184;2022-09-09T12:17:42;20.60;94.90
15900;DHT22;8048;50.644;6.184;2022-09-09T12:28:26;24.20;86.20
15900;DHT22;8048;50.644;6.184;2022-09-09T12:31:05;24.30;80.10
15900;DHT22;8048;50.644;6.184;2022-09-09T12:33:40;24.20;79.90
15900;DHT22;8048;50.644;6.184;2022-09-09T12:36:14;24.00;78.90
15900;DHT22;8048;50.644;6.184;2022-09-09T12:38:41;23.80;78.30
15900;DHT22;8048;50.644;6.184;2022-09-09T12:41:24;23.70;79.60
15900;DHT22;8048;50.644;6.184;2022-09-09T12:43:51;23.50;80.60
15900;DHT22;8048;50.644;6.184;2022-09-09T12:46:36;23.40;80.20
15900;DHT22;8048;50.644;6.184;2022-09-09T12:49:03;23.30;79.60
15900;DHT22;8048;50.644;6.184;2022-09-09T12:51:31;22.90;80.70
15900;DHT22;8048;50.644;6.184;2022-09-09T12:53:58;22.50;80.50
15900;DHT22;8048;50.644;6.184;2022-09-09T12:56:26;22.10;80.10
15900;DHT22;8048;50.644;6.184;2022-09-09T12:58:54;22.30;82.50
15900;DHT22;8048;50.644;6.184;2022-09-09T13:01:31;22.20;79.70
15900;DHT22;8048;50.644;6.184;2022-09-09T13:03:59;22.00;81.90
15900;DHT22;8048;50.644;6.184;2022-09-09T13:06:26;21.70;80.50
15900;DHT22;8048;50.644;6.184;2022-09-09T13:08:53;21.60;82.60
15900;DHT22;8048;50.644;6.184;2022-09-09T13:11:46;21.40;87.30
15900;DHT22;8048;50.644;6.184;2022-09-09T13:14:20;21.00;88.50
15900;DHT22;8048;50.644;6.184;2022-09-09T13:16:58;20.70;91.10
15900;DHT22;8048;50.644;6.184;2022-09-09T13:19:25;20.30;92.40
15900;DHT22;8048;50.644;6.184;2022-09-09T13:21:54;20.10;93.60
15900;DHT22;8048;50.644;6.184;2022-09-09T13:26:57;19.70;94.80
15900;DHT22;8048;50.644;6.184;2022-09-09T13:29:23;19.50;96.40
15900;DHT22;8048;50.644;6.184;2022-09-09T13:31:50;19.30;97.00
15900;DHT22;8048;50.644;6.184;2022-09-09T13:34:29;19.10;97.60
15900;DHT22;8048;50.644;6.184;2022-09-09T13:37:04;19.00;98.40
15900;DHT22;8048;50.644;6.184;2022-09-09T13:39:33;19.00;98.40
15900;DHT22;8048;50.644;6.184;2022-09-09T13:41:59;19.20;99.90
15900;DHT22;8048;50.644;6.184;2022-09-09T13:44:31;19.30;99.40
15900;DHT22;8048;50.644;6.184;2022-09-09T13:47:20;19.10;98.60
15900;DHT22;8048;50.644;6.184;2022-09-09T13:49:46;19.00;98.60
15900;DHT22;8048;50.644;6.184;2022-09-09T13:52:14;18.80;99.20
15900;DHT22;8048;50.644;6.184;2022-09-09T13:54:42;18.70;99.50
15900;DHT22;8048;50.644;6.184;2022-09-09T13:57:20;19.10;99.90
15900;DHT22;8048;50.644;6.184;2022-09-09T13:59:46;19.40;99.90
15900;DHT22;8048;50.644;6.184;2022-09-09T14:02:13;19.50;99.90
15900;DHT22;8048;50.644;6.184;2022-09-09T14:04:38;19.40;99.20
15900;DHT22;8048;50.644;6.184;2022-09-09T14:07:10;19.30;99.90
15900;DHT22;8048;50.644;6.184;2022-09-09T14:09:36;19.20;99.10
15900;DHT22;8048;50.644;6.184;2022-09-09T14:12:02;19.10;99.90
15900;DHT22;8048;50.644;6.184;2022-09-09T14:14:27;19.00;99.90
15900;DHT22;8048;50.644;6.184;2022-09-09T14:16:53;18.80;99.30
15900;DHT22;8048;50.644;6.184;2022-09-09T14:19:18;18.70;99.40
15900;DHT22;8048;50.644;6.184;2022-09-09T14:21:44;18.40;99.90
15900;DHT22;8048;50.644;6.184;2022-09-09T14:24:09;18.40;99.90
15900;DHT22;8048;50.644;6.184;2022-09-09T14:26:35;18.50;99.90
15900;DHT22;8048;50.644;6.184;2022-09-09T14:29:01;18.30;99.90
15900;DHT22;8048;50.644;6.184;2022-09-09T14:31:26;18.20;99.90
15900;DHT22;8048;50.644;6.184;2022-09-09T14:33:52;18.00;99.90
15900;DHT22;8048;50.644;6.184;2022-09-09T14:36:18;18.00;99.90
15900;DHT22;8048;50.644;6.184;2022-09-09T14:38:43;17.90;99.90
15900;DHT22;8048;50.644;6.184;2022-09-09T14:41:14;17.80;99.90
15900;DHT22;8048;50.644;6.184;2022-09-09T14:43:42;17.80;99.90
15900;DHT22;8048;50.644;6.184;2022-09-09T14:46:09;17.60;99.90
15900;DHT22;8048;50.644;6.184;2022-09-09T14:48:36;17.40;99.90
15900;DHT22;8048;50.644;6.184;2022-09-09T14:51:09;17.40;99.90
15900;DHT22;8048;50.644;6.184;2022-09-09T14:53:35;17.20;99.90
15900;DHT22;8048;50.644;6.184;2022-09-09T14:56:12;17.20;99.90
15900;DHT22;8048;50.644;6.184;2022-09-09T14:58:38;17.20;99.90
15900;DHT22;8048;50.644;6.184;2022-09-09T15:01:13;17.10;99.90
15900;DHT22;8048;50.644;6.184;2022-09-09T15:03:39;17.00;99.90
15900;DHT22;8048;50.644;6.184;2022-09-09T15:06:11;17.00;99.90
15900;DHT22;8048;50.644;6.184;2022-09-09T15:08:38;17.00;99.90
15900;DHT22;8048;50.644;6.184;2022-09-09T15:11:05;17.10;99.90
15900;DHT22;8048;50.644;6.184;2022-09-09T15:13:33;17.10;99.90
15900;DHT22;8048;50.644;6.184;2022-09-09T15:16:16;17.20;99.90
15900;DHT22;8048;50.644;6.184;2022-09-09T15:18:42;17.20;99.90
15900;DHT22;8048;50.644;6.184;2022-09-09T15:21:10;17.30;99.90
15900;DHT22;8048;50.644;6.184;2022-09-09T15:23:36;17.30;99.90
15900;DHT22;8048;50.644;6.184;2022-09-09T15:26:02;17.30;99.90
15900;DHT22;8048;50.644;6.184;2022-09-09T15:28:29;17.30;99.90
15900;DHT22;8048;50.644;6.184;2022-09-09T15:30:54;17.10;99.90
15900;DHT22;8048;50.644;6.184;2022-09-09T15:33:21;17.10;99.90
15900;DHT22;8048;50.644;6.184;2022-09-09T15:35:47;17.00;99.90
15900;DHT22;8048;50.644;6.184;2022-09-09T15:38:13;16.90;99.90
15900;DHT22;8048;50.644;6.184;2022-09-09T15:40:40;16.90;99.90
15900;DHT22;8048;50.644;6.184;2022-09-09T15:43:06;16.90;99.90
15900;DHT22;8048;50.644;6.184;2022-09-09T15:45:33;16.90;99.90
15900;DHT22;8048;50.644;6.184;2022-09-09T15:48:00;16.80;99.90
15900;DHT22;8048;50.644;6.184;2022-09-09T15:50:26;16.80;99.90
15900;DHT22;8048;50.644;6.184;2022-09-09T15:52:51;16.80;99.90
15900;DHT22;8048;50.644;6.184;2022-09-09T15:55:18;16.70;99.90
15900;DHT22;8048;50.644;6.184;2022-09-09T15:57:44;16.50;99.90
15900;DHT22;8048;50.644;6.184;2022-09-09T16:00:10;16.40;99.90
15900;DHT22;8048;50.644;6.184;2022-09-09T16:02:38;16.40;99.90
15900;DHT22;8048;50.644;6.184;2022-09-09T16:05:04;16.40;99.90
15900;DHT22;8048;50.644;6.184;2022-09-09T16:07:30;16.40;99.90
15900;DHT22;8048;50.644;6.184;2022-09-09T16:09:55;16.30;99.90
15900;DHT22;8048;50.644;6.184;2022-09-09T16:12:21;16.20;99.90
15900;DHT22;8048;50.644;6.184;2022-09-09T16:14:46;16.20;99.90
15900;DHT22;8048;50.644;6.184;2022-09-09T16:17:12;16.20;99.90
15900;DHT22;8048;50.644;6.184;2022-09-09T16:19:40;16.10;99.90
15900;DHT22;8048;50.644;6.184;2022-09-09T16:22:06;16.20;99.90
15900;DHT22;8048;50.644;6.184;2022-09-09T16:24:32;16.10;99.90
15900;DHT22;8048;50.644;6.184;2022-09-09T16:26:58;16.20;99.90
15900;DHT22;8048;50.644;6.184;2022-09-09T16:29:24;16.30;99.90
15900;DHT22;8048;50.644;6.184;2022-09-09T16:31:52;16.20;99.90
15900;DHT22;8048;50.644;6.184;2022-09-09T16:34:19;16.30;99.90
15900;DHT22;8048;50.644;6.184;2022-09-09T16:36:45;16.30;99.90
15900;DHT22;8048;50.644;6.184;2022-09-09T16:39:13;16.30;99.90
15900;DHT22;8048;50.644;6.184;2022-09-09T16:41:40;16.30;99.90
15900;DHT22;8048;50.644;6.184;2022-09-09T16:44:08;16.30;99.90
15900;DHT22;8048;50.644;6.184;2022-09-09T16:46:36;16.30;99.90
15900;DHT22;8048;50.644;6.184;2022-09-09T16:49:05;16.30;99.90
15900;DHT22;8048;50.644;6.184;2022-09-09T16:51:36;16.30;99.90
15900;DHT22;8048;50.644;6.184;2022-09-09T16:54:03;16.30;99.90
15900;DHT22;8048;50.644;6.184;2022-09-09T16:56:31;16.20;99.90
15900;DHT22;8048;50.644;6.184;2022-09-09T16:59:02;16.20;99.90
15900;DHT22;8048;50.644;6.184;2022-09-09T17:01:30;16.20;99.90
15900;DHT22;8048;50.644;6.184;2022-09-09T17:03:58;16.20;99.90
15900;DHT22;8048;50.644;6.184;2022-09-09T17:06:24;16.20;99.90
15900;DHT22;8048;50.644;6.184;2022-09-09T17:08:58;16.20;99.90
15900;DHT22;8048;50.644;6.184;2022-09-09T17:11:25;16.10;99.90
15900;DHT22;8048;50.644;6.184;2022-09-09T17:13:52;16.10;99.90
15900;DHT22;8048;50.644;6.184;2022-09-09T17:16:19;16.10;99.90
15900;DHT22;8048;50.644;6.184;2022-09-09T17:18:47;16.10;99.90
15900;DHT22;8048;50.644;6.184;2022-09-09T17:21:15;16.00;99.90
15900;DHT22;8048;50.644;6.184;2022-09-09T17:23:41;16.10;99.90
15900;DHT22;8048;50.644;6.184;2022-09-09T17:26:10;16.00;99.90
15900;DHT22;8048;50.644;6.184;2022-09-09T17:28:37;15.90;99.90
15900;DHT22;8048;50.644;6.184;2022-09-09T17:31:09;15.90;99.90
15900;DHT22;8048;50.644;6.184;2022-09-09T17:33:37;15.80;99.90
15900;DHT22;8048;50.644;6.184;2022-09-09T17:36:07;15.80;99.90
15900;DHT22;8048;50.644;6.184;2022-09-09T17:38:33;15.70;99.90
15900;DHT22;8048;50.644;6.184;2022-09-09T17:41:04;15.70;99.90
15900;DHT22;8048;50.644;6.184;2022-09-09T17:43:30;15.70;99.90